Lumber Bridge, North Carolina
Current Conditions -  °F | °C
As of 12:02 AM on Thursday 27 Nov 2014 (Local Time) from KFAY Reporting Station
Broken Clouds Broken Clouds  
Wind Chill: 40°   Ceiling: 7000
Heat Index: 40°   Visibility: 7mi
Dew Point: 39°   Wind: 3mph
Humidity: 97%   Direction: 150°SSE
Pressure: 30.06"   Gusts: NA
Location:  34.89°N, 79.07°W
Report Text: KFAY 270502Z 15003KT 7SM FEW002 SCT045 BKN070 04/04 A3006 RMK AO2 T00440039
Loading
Personal Weather Stations






























Interactive Weather Map New forecast layout! Learn more

10-Day Weather Forecast

Advertisements
Track Severe Weather on mobile